CheckWX is a tool to help pilots better visualize weather data.  It is not intended as a substitute for an official pre-flight weather briefing.

06:53:33 UTC

KOSH METAR
Wittman Regional Airport
Oshkosh, Wisconsin, USA
Current

1 hour ago

KOSH 180553Z AUTO 18005KT 10SM CLR 14/12 A2997 RMK AO2 SLP144 T01440122 10211 20133 402170117 58005
Observed
Jun-18 @ 05:53 UTC
Wind
  • 180° at 5 KTS
Visibility
10 SM
Flight Rules
VFR
Cloud Levels
  • Clear skies
Temperature
14°C / 57°F
Dewpoint
12°C / 54°F
Humidity
88%
Altimeter
29.97" Hg
Pressure
1014.92 hPa
Previous

2 hours ago

KOSH 180453Z AUTO 18006KT 10SM CLR 14/12 A2998 RMK AO2 SLP147 T01390117
Observed
Jun-18 @ 04:53 UTC
Wind
  • 180° at 6 KTS
Visibility
10 SM
Flight Rules
VFR
Cloud Levels
  • Clear skies
Temperature
14°C / 57°F
Dewpoint
12°C / 54°F
Humidity
88%
Altimeter
29.98" Hg
Pressure
1015.22 hPa
Previous

3 hours ago

KOSH 180353Z AUTO 17003KT 10SM CLR 14/12 A2999 RMK AO2 SLP151 T01440122
Observed
Jun-18 @ 03:53 UTC
Wind
  • 170° at 3 KTS
Visibility
10 SM
Flight Rules
VFR
Cloud Levels
  • Clear skies
Temperature
14°C / 57°F
Dewpoint
12°C / 54°F
Humidity
88%
Altimeter
29.99" Hg
Pressure
1015.62 hPa